UKV5035 RJNT-RJGG
Flight info
| Callsign | UKV5035 |
|---|---|
| Flight time | 0h 30m |
| Altitude | 21000 |
| Route | KMC25 V52 MINOU/N0389F200 CHESS |
| Aircraft | A321/M-SDE3FGHIRWY/LB1 |
Departure
| Time | 2026-05-06 21:21 |
|---|---|
| Airport | Toyama Kitokito Airport (RJNT) |
Arrival
| Time | 2026-05-06 21:52 |
|---|---|
| Airport | Chubu Centrair International Airport (RJGG) |
| Time | Latitude | Longitude | Altitude | Speed | Heading |
|---|---|---|---|---|---|
| 2026-05-06 21:10 | 36.64428 | 137.18810 | 92 ft | 3 kts | 126° |
| 2026-05-06 21:10 | 36.64443 | 137.18788 | 91 ft | 4 kts | 145° |
| 2026-05-06 21:11 | 36.64466 | 137.18778 | 91 ft | 4 kts | 184° |
| 2026-05-06 21:11 | 36.64485 | 137.18781 | 92 ft | 1 kts | 193° |
| 2026-05-06 21:11 | 36.64487 | 137.18782 | 92 ft | 0 kts | 193° |
| 2026-05-06 21:13 | 36.64477 | 137.18779 | 93 ft | 6 kts | 193° |
| 2026-05-06 21:14 | 36.64422 | 137.18750 | 90 ft | 10 kts | 221° |
| 2026-05-06 21:14 | 36.64414 | 137.18735 | 90 ft | 0 kts | 239° |
| 2026-05-06 21:17 | 36.64414 | 137.18734 | 90 ft | 0 kts | 239° |
| 2026-05-06 21:18 | 36.64412 | 137.18730 | 90 ft | 1 kts | 239° |
| 2026-05-06 21:18 | 36.64405 | 137.18711 | 91 ft | 5 kts | 250° |
| 2026-05-06 21:18 | 36.64423 | 137.18651 | 90 ft | 15 kts | 314° |
| 2026-05-06 21:18 | 36.64559 | 137.18658 | 89 ft | 22 kts | 13° |
| 2026-05-06 21:19 | 36.64714 | 137.18704 | 88 ft | 24 kts | 14° |
| 2026-05-06 21:19 | 36.64877 | 137.18755 | 90 ft | 24 kts | 14° |
| 2026-05-06 21:19 | 36.65041 | 137.18806 | 90 ft | 25 kts | 14° |
| 2026-05-06 21:19 | 36.65250 | 137.18866 | 91 ft | 40 kts | 14° |
| 2026-05-06 21:20 | 36.65437 | 137.18921 | 92 ft | 22 kts | 12° |
| 2026-05-06 21:20 | 36.65521 | 137.18947 | 93 ft | 18 kts | 13° |
| 2026-05-06 21:20 | 36.65666 | 137.19038 | 92 ft | 12 kts | 26° |
| 2026-05-06 21:20 | 36.65687 | 137.19006 | 92 ft | 5 kts | 234° |
| 2026-05-06 21:21 | 36.65657 | 137.18987 | 92 ft | 0 kts | 194° |
| 2026-05-06 21:21 | 36.65421 | 137.18914 | 93 ft | 82 kts | 193° |
| 2026-05-06 21:21 | 36.64602 | 137.18670 | 109 ft | 157 kts | 193° |
| 2026-05-06 21:21 | 36.63526 | 137.18340 | 942 ft | 159 kts | 194° |
| 2026-05-06 21:22 | 36.62450 | 137.18006 | 1915 ft | 161 kts | 197° |
| 2026-05-06 21:22 | 36.61469 | 137.17324 | 2472 ft | 166 kts | 216° |
| 2026-05-06 21:22 | 36.60504 | 137.16381 | 2722 ft | 187 kts | 218° |
| 2026-05-06 21:22 | 36.59439 | 137.15290 | 2907 ft | 209 kts | 219° |
| 2026-05-06 21:23 | 36.58276 | 137.14100 | 3143 ft | 221 kts | 218° |
| 2026-05-06 21:23 | 36.57077 | 137.12889 | 3568 ft | 222 kts | 217° |
| 2026-05-06 21:23 | 36.56279 | 137.12091 | 3874 ft | 222 kts | 217° |
| 2026-05-06 21:23 | 36.55051 | 137.10876 | 4144 ft | 235 kts | 216° |
| 2026-05-06 21:24 | 36.53689 | 137.09544 | 4428 ft | 258 kts | 216° |
| 2026-05-06 21:24 | 36.52271 | 137.08160 | 5244 ft | 261 kts | 216° |
| 2026-05-06 21:24 | 36.50839 | 137.06765 | 6024 ft | 264 kts | 218° |
| 2026-05-06 21:24 | 36.49383 | 137.05346 | 6788 ft | 267 kts | 218° |
| 2026-05-06 21:25 | 36.47912 | 137.03915 | 7540 ft | 269 kts | 219° |
| 2026-05-06 21:25 | 36.46425 | 137.02471 | 8307 ft | 273 kts | 219° |
| 2026-05-06 21:25 | 36.44920 | 137.01015 | 9030 ft | 275 kts | 219° |
| 2026-05-06 21:25 | 36.43401 | 136.99545 | 9806 ft | 278 kts | 219° |
| 2026-05-06 21:26 | 36.41879 | 136.98067 | 10380 ft | 289 kts | 219° |
| 2026-05-06 21:26 | 36.40239 | 136.96469 | 10527 ft | 310 kts | 219° |
| 2026-05-06 21:26 | 36.38478 | 136.94756 | 10678 ft | 333 kts | 219° |
| 2026-05-06 21:26 | 36.36623 | 136.92956 | 11128 ft | 343 kts | 219° |
| 2026-05-06 21:27 | 36.34729 | 136.91124 | 11726 ft | 348 kts | 219° |
| 2026-05-06 21:27 | 36.32809 | 136.89276 | 12422 ft | 351 kts | 219° |
| 2026-05-06 21:27 | 36.30870 | 136.87412 | 13075 ft | 354 kts | 219° |
| 2026-05-06 21:27 | 36.28920 | 136.85539 | 13747 ft | 356 kts | 219° |
| 2026-05-06 21:28 | 36.26955 | 136.83645 | 14356 ft | 359 kts | 219° |
| 2026-05-06 21:28 | 36.24979 | 136.81738 | 14925 ft | 362 kts | 219° |
| 2026-05-06 21:28 | 36.22979 | 136.79807 | 15438 ft | 367 kts | 219° |
| 2026-05-06 21:28 | 36.20953 | 136.77854 | 16010 ft | 371 kts | 219° |
| 2026-05-06 21:29 | 36.18908 | 136.75884 | 16554 ft | 374 kts | 219° |
| 2026-05-06 21:29 | 36.16841 | 136.73897 | 17130 ft | 378 kts | 219° |
| 2026-05-06 21:29 | 36.14755 | 136.71898 | 17698 ft | 381 kts | 219° |
| 2026-05-06 21:29 | 36.12673 | 136.69903 | 18281 ft | 385 kts | 219° |
| 2026-05-06 21:30 | 36.10550 | 136.67868 | 18738 ft | 388 kts | 219° |
| 2026-05-06 21:30 | 36.08400 | 136.65813 | 19234 ft | 391 kts | 220° |
| 2026-05-06 21:30 | 36.06239 | 136.63747 | 19731 ft | 394 kts | 220° |
| 2026-05-06 21:30 | 36.03936 | 136.61874 | 20208 ft | 400 kts | 209° |
| 2026-05-06 21:31 | 36.01313 | 136.60651 | 20679 ft | 407 kts | 197° |
| 2026-05-06 21:31 | 35.98487 | 136.60188 | 20998 ft | 414 kts | 184° |
| 2026-05-06 21:31 | 35.95595 | 136.60567 | 21074 ft | 426 kts | 169° |
| 2026-05-06 21:31 | 35.92738 | 136.61751 | 21088 ft | 437 kts | 162° |
| 2026-05-06 21:32 | 35.89883 | 136.63077 | 21084 ft | 439 kts | 162° |
| 2026-05-06 21:32 | 35.84142 | 136.65697 | 21079 ft | 439 kts | 163° |
| 2026-05-06 21:32 | 35.81272 | 136.66991 | 21085 ft | 439 kts | 163° |
| 2026-05-06 21:33 | 35.78440 | 136.68260 | 21091 ft | 439 kts | 163° |
| 2026-05-06 21:33 | 35.75567 | 136.69544 | 21091 ft | 439 kts | 163° |
| 2026-05-06 21:33 | 35.72693 | 136.70822 | 21079 ft | 438 kts | 164° |
| 2026-05-06 21:33 | 35.69748 | 136.71692 | 21088 ft | 434 kts | 175° |
| 2026-05-06 21:34 | 35.66742 | 136.71832 | 21086 ft | 430 kts | 186° |
| 2026-05-06 21:34 | 35.63804 | 136.71267 | 21089 ft | 426 kts | 197° |
| 2026-05-06 21:34 | 35.61031 | 136.70028 | 21089 ft | 423 kts | 208° |
| 2026-05-06 21:34 | 35.58513 | 136.68187 | 21084 ft | 421 kts | 216° |
| 2026-05-06 21:35 | 35.56072 | 136.66184 | 21084 ft | 421 kts | 216° |
| 2026-05-06 21:35 | 35.53632 | 136.64193 | 21083 ft | 421 kts | 215° |
| 2026-05-06 21:35 | 35.51188 | 136.62204 | 21081 ft | 421 kts | 215° |
| 2026-05-06 21:35 | 35.48741 | 136.60218 | 21080 ft | 421 kts | 215° |
| 2026-05-06 21:36 | 35.46295 | 136.58233 | 21071 ft | 421 kts | 215° |
| 2026-05-06 21:36 | 35.43849 | 136.56252 | 21069 ft | 421 kts | 215° |
| 2026-05-06 21:36 | 35.41404 | 136.54273 | 21065 ft | 421 kts | 215° |
| 2026-05-06 21:36 | 35.38955 | 136.52292 | 21062 ft | 422 kts | 214° |
| 2026-05-06 21:37 | 35.36380 | 136.50562 | 21064 ft | 424 kts | 205° |
| 2026-05-06 21:37 | 35.33574 | 136.49437 | 21062 ft | 427 kts | 194° |
| 2026-05-06 21:37 | 35.30641 | 136.48969 | 21074 ft | 421 kts | 184° |
| 2026-05-06 21:37 | 35.27730 | 136.49132 | 21076 ft | 418 kts | 177° |
| 2026-05-06 21:38 | 35.24839 | 136.49439 | 20503 ft | 419 kts | 177° |
| 2026-05-06 21:38 | 35.21904 | 136.49744 | 19550 ft | 426 kts | 177° |
| 2026-05-06 21:38 | 35.18996 | 136.50042 | 18816 ft | 421 kts | 177° |
| 2026-05-06 21:38 | 35.16121 | 136.50338 | 17717 ft | 408 kts | 177° |
| 2026-05-06 21:39 | 35.13397 | 136.50621 | 17430 ft | 376 kts | 177° |
| 2026-05-06 21:39 | 35.10877 | 136.50886 | 17017 ft | 354 kts | 178° |
| 2026-05-06 21:39 | 35.08399 | 136.51137 | 16545 ft | 359 kts | 178° |
| 2026-05-06 21:39 | 35.05908 | 136.51382 | 16061 ft | 358 kts | 178° |
| 2026-05-06 21:40 | 35.03418 | 136.51628 | 15564 ft | 359 kts | 178° |
| 2026-05-06 21:40 | 35.00936 | 136.51875 | 15070 ft | 357 kts | 178° |
| 2026-05-06 21:40 | 34.98468 | 136.52125 | 14564 ft | 354 kts | 178° |
| 2026-05-06 21:40 | 34.96012 | 136.52376 | 14039 ft | 353 kts | 178° |
| 2026-05-06 21:41 | 34.93566 | 136.52627 | 13469 ft | 352 kts | 178° |
| 2026-05-06 21:41 | 34.91138 | 136.52875 | 12955 ft | 348 kts | 178° |
| 2026-05-06 21:41 | 34.88740 | 136.53122 | 12456 ft | 344 kts | 178° |
| 2026-05-06 21:41 | 34.86363 | 136.53364 | 11954 ft | 341 kts | 178° |
| 2026-05-06 21:42 | 34.84039 | 136.53598 | 11475 ft | 338 kts | 178° |
| 2026-05-06 21:42 | 34.81703 | 136.53833 | 10985 ft | 336 kts | 178° |
| 2026-05-06 21:42 | 34.79403 | 136.54066 | 10740 ft | 325 kts | 178° |
| 2026-05-06 21:42 | 34.77190 | 136.54291 | 10619 ft | 312 kts | 178° |
| 2026-05-06 21:43 | 34.75072 | 136.54575 | 10496 ft | 301 kts | 171° |
| 2026-05-06 21:43 | 34.73100 | 136.55362 | 10304 ft | 297 kts | 157° |
| 2026-05-06 21:43 | 34.71379 | 136.56698 | 10195 ft | 295 kts | 143° |
| 2026-05-06 21:43 | 34.69953 | 136.58511 | 10116 ft | 300 kts | 130° |
| 2026-05-06 21:44 | 34.68727 | 136.60576 | 9997 ft | 302 kts | 129° |
| 2026-05-06 21:44 | 34.67480 | 136.62672 | 9423 ft | 309 kts | 129° |
| 2026-05-06 21:44 | 34.66236 | 136.64757 | 9160 ft | 302 kts | 129° |
| 2026-05-06 21:44 | 34.65006 | 136.66814 | 8762 ft | 298 kts | 129° |
| 2026-05-06 21:45 | 34.63799 | 136.68833 | 8026 ft | 294 kts | 129° |
| 2026-05-06 21:45 | 34.62604 | 136.70829 | 7302 ft | 290 kts | 128° |
| 2026-05-06 21:45 | 34.61424 | 136.72797 | 6634 ft | 286 kts | 128° |
| 2026-05-06 21:45 | 34.60265 | 136.74724 | 6048 ft | 280 kts | 128° |
| 2026-05-06 21:46 | 34.59122 | 136.76638 | 5564 ft | 282 kts | 124° |
| 2026-05-06 21:46 | 34.58313 | 136.78748 | 5486 ft | 271 kts | 106° |
| 2026-05-06 21:46 | 34.58098 | 136.81001 | 5071 ft | 275 kts | 85° |
| 2026-05-06 21:46 | 34.58678 | 136.83203 | 4785 ft | 272 kts | 58° |
| 2026-05-06 21:47 | 34.59906 | 136.84871 | 4645 ft | 261 kts | 34° |
| 2026-05-06 21:47 | 34.61486 | 136.85801 | 4463 ft | 247 kts | 13° |
| 2026-05-06 21:47 | 34.63153 | 136.85958 | 4168 ft | 236 kts | 351° |
| 2026-05-06 21:47 | 34.64741 | 136.85601 | 3873 ft | 229 kts | 346° |
| 2026-05-06 21:48 | 34.66289 | 136.85227 | 3576 ft | 224 kts | 347° |
| 2026-05-06 21:48 | 34.67802 | 136.84864 | 3298 ft | 218 kts | 347° |
| 2026-05-06 21:48 | 34.69275 | 136.84512 | 3012 ft | 214 kts | 347° |
| 2026-05-06 21:48 | 34.70717 | 136.84167 | 2748 ft | 207 kts | 347° |
| 2026-05-06 21:49 | 34.72075 | 136.83842 | 2488 ft | 193 kts | 348° |
| 2026-05-06 21:49 | 34.73352 | 136.83536 | 2222 ft | 187 kts | 348° |
| 2026-05-06 21:49 | 34.74617 | 136.83233 | 1979 ft | 184 kts | 348° |
| 2026-05-06 21:49 | 34.75858 | 136.82936 | 1757 ft | 174 kts | 348° |
| 2026-05-06 21:50 | 34.77011 | 136.82659 | 1513 ft | 164 kts | 349° |
| 2026-05-06 21:50 | 34.78116 | 136.82394 | 1291 ft | 160 kts | 348° |
| 2026-05-06 21:50 | 34.79207 | 136.82132 | 1087 ft | 158 kts | 348° |
| 2026-05-06 21:50 | 34.80246 | 136.81875 | 902 ft | 146 kts | 347° |
| 2026-05-06 21:51 | 34.81223 | 136.81639 | 690 ft | 140 kts | 348° |
| 2026-05-06 21:51 | 34.82170 | 136.81410 | 491 ft | 137 kts | 348° |
| 2026-05-06 21:51 | 34.83101 | 136.81185 | 310 ft | 136 kts | 348° |
| 2026-05-06 21:51 | 34.84023 | 136.80969 | 105 ft | 133 kts | 348° |
| 2026-05-06 21:52 | 34.84911 | 136.80767 | 33 ft | 119 kts | 348° |
| 2026-05-06 21:52 | 34.85607 | 136.80593 | 22 ft | 80 kts | 348° |
| 2026-05-06 21:52 | 34.86013 | 136.80497 | 24 ft | 48 kts | 349° |
| 2026-05-06 21:52 | 34.86304 | 136.80428 | 25 ft | 36 kts | 348° |
| 2026-05-06 21:53 | 34.86519 | 136.80428 | 25 ft | 30 kts | 18° |
| 2026-05-06 21:53 | 34.86670 | 136.80495 | 28 ft | 17 kts | 48° |
| 2026-05-06 21:53 | 34.86630 | 136.80586 | 28 ft | 16 kts | 166° |
| 2026-05-06 21:53 | 34.86520 | 136.80619 | 28 ft | 17 kts | 167° |
| 2026-05-06 21:54 | 34.86400 | 136.80650 | 28 ft | 18 kts | 172° |
| 2026-05-06 21:54 | 34.86272 | 136.80679 | 28 ft | 19 kts | 169° |
| 2026-05-06 21:54 | 34.86135 | 136.80711 | 28 ft | 21 kts | 169° |
| 2026-05-06 21:54 | 34.85990 | 136.80745 | 28 ft | 22 kts | 169° |
| 2026-05-06 21:55 | 34.85857 | 136.80777 | 28 ft | 19 kts | 169° |
| 2026-05-06 21:55 | 34.85731 | 136.80808 | 28 ft | 21 kts | 169° |
| 2026-05-06 21:55 | 34.85591 | 136.80848 | 28 ft | 20 kts | 146° |
| 2026-05-06 21:55 | 34.85583 | 136.81006 | 28 ft | 20 kts | 78° |
| 2026-05-06 21:56 | 34.85611 | 136.81174 | 28 ft | 19 kts | 79° |
| 2026-05-06 21:56 | 34.85651 | 136.81262 | 29 ft | 13 kts | 13° |
| 2026-05-06 21:56 | 34.85688 | 136.81192 | 28 ft | 9 kts | 267° |
| 2026-05-06 21:56 | 34.85719 | 136.81175 | 28 ft | 6 kts | 352° |
| 2026-05-06 21:57 | 34.85749 | 136.81170 | 28 ft | 1 kts | 352° |
| 2026-05-06 21:57 | 34.85753 | 136.81170 | 28 ft | 0 kts | 352° |